Date,TemperatureHighF,TemperatureAvgF,TemperatureLowF,DewpointHighF,DewpointAvgF,DewpointLowF,HumidityHigh,HumidityAvg,HumidityLow,PressureMaxIn,PressureMinIn,WindSpeedMaxMPH,WindSpeedAvgMPH,GustSpeedMaxMPH,PrecipitationSumIn
2013-1-1,21.9,16.2,6.3,-8.1,-11.7,-16.6,37,28,22,30.27,30.12,8,3,21,0.00
2013-1-2,33.6,25.2,0.0,4.2,-0.3,-6.2,43,32,23,30.09,24.57,186,6,244,0.00
2013-1-3,34.2,29.1,21.0,16.1,5.7,-3.2,58,38,25,30.33,30.15,15,6,15,0.00
2013-1-4,42.1,32.3,18.1,11.0,4.3,-1.0,52,32,21,30.27,24.57,15,5,20,0.00
2013-1-5,44.1,38.0,0.0,20.5,13.6,0.0,49,35,25,30.06,29.94,15,9,18,0.00
2013-1-6,38.5,29.7,0.0,4.4,0.8,-4.5,51,29,21,30.27,30.15,13,4,13,0.00
2013-1-7,48.9,40.5,0.0,8.5,5.0,0.0,32,22,19,30.09,29.94,18,8,18,0.00
2013-1-8,53.1,45.6,35.4,13.2,9.6,5.6,35,23,18,29.97,29.88,20,7,20,0.00
2013-1-9,59.4,44.8,30.2,17.8,11.4,3.0,42,27,17,30.36,30.18,186,6,244,0.00
2013-1-10,40.5,38.3,0.0,38.6,25.9,0.0,94,66,21,30.09,29.76,17,7,20,0.00
2013-1-11,57.0,52.9,48.2,51.0,40.0,23.9,98,67,30,29.62,29.47,24,10,24,0.00
2013-1-12,28.9,25.7,23.0,1.0,-5.7,-8.2,35,25,23,30.00,29.91,18,8,21,0.00
2013-1-13,23.5,16.1,12.2,-8.8,-12.8,-16.6,35,26,22,30.21,30.09,13,6,20,0.00
2013-1-14,32.9,22.6,8.2,-0.8,-8.8,-21.2,36,24,20,30.41,0.00,19,3,19,0.00
2013-1-15,35.1,26.8,12.0,0.4,-3.3,-9.8,44,27,20,30.27,24.57,20,3,20,0.00
2013-1-16,48.0,36.2,21.2,7.7,1.4,-7.6,32,23,19,29.97,29.88,15,7,229,0.00
2013-1-17,45.1,35.4,23.9,8.4,4.7,-1.1,49,29,20,30.41,30.27,8,3,20,1.25
2013-1-18,58.3,48.6,0.0,13.5,10.1,0.0,39,21,17,30.15,29.88,29,12,29,0.00
2013-1-19,59.5,51.9,0.0,14.6,11.1,0.0,30,19,17,30.06,29.82,24,10,24,0.00
2013-1-20,32.4,23.2,0.0,0.0,-9.9,-15.3,25,21,20,30.30,30.21,21,4,21,0.00
2013-1-21,14.7,12.5,0.0,0.0,-15.0,-16.2,27,27,26,30.36,30.24,21,7,21,0.00
2013-1-22,27.0,19.4,0.0,0.0,-12.1,-16.3,27,23,21,30.33,0.00,19,4,19,0.00
2013-1-23,43.5,29.6,0.0,5.4,-2.5,-14.1,37,24,20,30.27,24.57,21,6,21,0.00
2013-1-24,21.4,16.2,5.4,-11.5,-15.2,-23.6,24,23,22,30.41,30.09,129,8,129,0.00
2013-1-25,49.3,35.2,0.0,8.8,0.4,-14.8,32,22,19,30.12,30.00,11,5,229,0.00
2013-1-26,45.7,36.7,21.7,6.9,1.4,-6.7,32,22,20,32.13,30.06,13,8,13,0.00
2013-1-27,49.8,44.3,36.0,46.1,40.1,28.2,89,85,73,29.85,29.65,13,5,13,0.00
2013-1-28,72.3,56.2,0.0,61.9,38.8,0.0,98,62,19,29.79,29.62,15,5,19,0.00
2013-1-29,46.9,37.9,0.0,35.5,31.4,0.0,82,76,63,29.59,0.00,115,7,115,0.00
2013-1-30,26.1,24.0,0.0,22.3,9.0,-4.0,88,57,29,29.79,29.47,26,15,26,0.00
2013-1-31,17.2,11.8,6.1,-6.9,-15.0,-20.7,34,28,26,30.24,24.57,24,12,25,0.00
2013-2-1,24.1,16.3,0.0,0.0,-12.5,-25.1,27,25,24,30.33,30.03,20,6,20,0.00
2013-2-2,35.4,30.8,0.0,7.8,5.7,0.0,44,34,31,30.12,24.57,21,5,21,0.00
2013-2-3,42.4,35.4,0.0,5.3,1.6,-2.6,31,22,21,30.18,29.88,12,6,12,0.00
2013-2-4,36.1,29.0,0.0,8.7,5.2,0.0,43,35,30,29.91,0.00,20,6,22,0.00
2013-2-5,53.1,39.6,0.0,14.3,9.2,0.0,53,30,18,29.97,29.79,172,7,172,0.00
2013-2-6,59.4,49.2,0.0,16.7,12.4,0.0,43,24,17,30.00,0.00,20,8,20,0.00
2013-2-7,46.6,42.0,0.0,30.5,21.6,0.0,55,43,37,30.03,24.57,172,10,172,0.00
2013-2-8,41.2,32.8,27.5,13.3,9.6,0.0,51,39,23,30.30,30.15,19,5,19,0.00
2013-2-9,46.0,40.1,30.4,20.0,13.2,0.0,57,35,22,30.06,29.79,19,10,20,0.00
2013-2-10,54.3,45.7,36.1,48.1,17.1,2.8,98,38,18,29.59,0.00,32,17,32,0.00
2013-2-11,46.2,38.1,29.7,7.4,3.4,-1.4,33,23,20,30.06,24.57,23,10,24,0.00
2013-2-12,45.9,34.0,19.6,13.5,5.6,-1.6,48,31,20,30.06,24.57,19,3,19,0.00
2013-2-13,56.3,44.1,23.5,12.5,8.5,2.2,43,24,17,29.82,0.00,21,7,21,0.00
2013-2-14,49.8,43.4,0.0,13.1,8.2,0.0,39,23,19,29.97,24.57,19,10,19,0.00
2013-2-15,34.9,27.7,16.2,-0.1,-4.1,-12.2,34,25,21,30.30,30.18,21,8,21,0.00
2013-2-16,30.7,20.7,14.0,3.6,-0.6,-6.9,46,39,23,30.15,0.00,8,4,8,0.00
2013-2-17,55.9,46.8,0.0,12.5,8.2,0.0,32,20,17,29.91,0.00,18,10,18,0.00
2013-2-18,52.7,36.9,0.0,18.2,6.7,-6.0,40,28,21,29.88,29.47,29,11,30,0.00
2013-2-19,29.5,21.4,13.5,-6.8,-10.9,-16.1,27,23,20,30.24,24.57,23,12,23,0.00
2013-2-20,24.1,17.3,0.0,0.0,-13.7,-22.3,27,23,22,30.30,30.12,12,5,12,0.00
2013-2-21,23.2,21.6,19.6,12.3,6.4,-8.8,65,53,27,30.00,29.71,29,10,29,0.00
2013-2-22,27.0,23.9,21.6,16.1,2.9,-5.5,78,43,26,29.97,29.71,18,11,18,0.00
2013-2-23,34.3,27.2,10.2,1.6,-1.9,-9.3,47,29,22,29.91,29.82,20,5,20,0.00
2013-2-24,43.0,36.5,0.0,8.2,4.3,0.0,45,25,20,30.00,24.57,12,6,12,0.00
2013-2-25,37.6,34.3,27.0,8.7,6.5,1.7,36,31,26,29.91,24.57,12,5,18,0.00
2013-2-26,32.4,31.5,0.0,31.9,31.0,0.0,98,97,97,29.68,29.53,115,9,115,0.00
2013-2-27,33.8,29.8,27.0,26.5,17.7,7.8,98,64,33,29.88,24.57,20,11,20,0.00
2013-2-28,33.6,30.7,27.0,8.3,5.8,3.5,43,35,30,30.09,30.00,21,8,21,0.00
2013-3-1,32.0,29.1,26.2,7.1,2.8,-2.0,41,32,25,30.15,24.57,18,8,18,0.00
2013-3-2,36.7,28.6,0.0,1.4,-2.9,-6.2,32,25,22,30.27,30.12,10,3,18,0.00
2013-3-3,38.5,34.0,24.1,2.2,0.8,-1.7,34,24,21,29.97,29.74,20,10,20,0.00
2013-3-4,44.6,38.8,0.0,8.6,7.1,0.0,35,26,22,29.82,29.62,18,5,19,0.00
2013-3-5,32.2,29.0,0.0,4.5,1.9,-3.2,32,29,26,30.15,29.97,30,17,30,0.00
2013-3-6,38.5,31.6,21.4,3.3,1.2,-1.4,37,27,21,30.36,30.30,11,4,11,0.00
2013-3-7,41.0,33.7,0.0,6.3,4.7,0.0,46,29,23,30.24,24.57,16,9,19,0.00
2013-3-8,49.6,42.3,0.0,14.1,11.6,0.0,43,28,21,30.12,29.97,18,9,18,0.00
2013-3-9,49.1,43.0,40.5,47.7,39.5,33.0,96,88,72,29.79,29.59,15,6,15,0.00
2013-3-10,40.6,34.8,0.0,39.9,31.5,0.0,98,87,59,29.71,0.00,29,11,29,0.00
2013-3-11,34.3,27.9,0.0,14.0,9.0,0.0,61,43,27,29.85,29.74,20,12,21,0.00
2013-3-12,39.4,34.0,0.0,9.0,3.8,0.0,49,28,21,30.15,29.97,24,11,24,0.00
2013-3-13,41.9,33.6,0.0,5.8,3.2,-1.0,46,28,21,30.39,30.24,10,4,10,0.00
2013-3-14,68.9,55.4,35.8,19.4,12.8,0.0,29,19,15,30.03,30.00,21,6,21,0.00
2013-3-15,81.7,64.9,34.3,36.6,23.8,12.7,63,25,13,29.85,29.59,18,5,18,0.00
2013-3-16,41.2,38.8,36.7,20.0,12.0,5.7,49,33,26,30.00,0.00,15,6,15,0.00
2013-3-17,40.1,31.7,0.0,9.2,7.5,0.0,43,34,26,29.97,29.85,15,8,15,0.00
2013-3-18,49.3,41.3,0.0,36.6,13.6,-0.4,98,39,19,29.91,29.65,186,14,186,0.00
2013-3-19,46.4,37.2,0.0,18.6,2.4,-5.7,50,22,19,30.15,30.00,12,5,12,0.00
2013-3-20,36.7,30.0,18.5,1.4,-2.4,-10.1,30,24,20,30.27,30.06,18,10,21,0.00
2013-3-21,32.7,27.8,19.6,-1.0,-3.7,-7.2,33,25,23,29.97,0.00,19,8,19,0.00
2013-3-22,40.6,33.7,0.0,3.8,-0.2,-3.7,23,22,21,29.91,29.88,18,4,18,0.00
2013-3-23,43.3,37.8,0.0,14.6,6.0,0.0,47,26,20,29.97,29.82,18,6,18,0.00
2013-3-24,29.7,27.5,0.0,22.1,18.8,0.0,76,68,41,32.13,24.57,20,10,20,0.00
2013-3-25,124.7,30.9,26.2,98.5,11.3,1.7,72,45,25,30.15,0.00,23,12,23,0.00
2013-3-26,39.0,32.5,0.0,8.8,5.1,0.0,53,32,24,30.33,30.21,20,4,244,0.00
2013-3-27,47.8,39.4,0.0,13.2,9.1,0.0,47,29,22,30.21,24.57,17,8,17,0.00
2013-3-28,62.2,51.4,0.0,16.7,14.2,0.0,46,23,16,30.18,30.06,13,6,13,0.00
2013-3-29,68.5,57.0,0.0,22.0,17.7,0.0,49,24,15,30.15,0.00,17,7,17,0.00
2013-3-30,63.1,54.0,0.0,44.0,35.6,0.0,69,49,36,29.91,29.76,13,5,19,0.00
2013-3-31,61.7,56.0,0.0,34.3,21.1,0.0,64,28,16,29.88,24.57,19,9,19,0.00
2013-4-1,44.6,36.6,0.0,6.0,2.7,-1.7,33,23,20,30.21,30.12,15,8,15,0.00
2013-4-2,78.3,42.1,0.0,10.7,5.6,-30.0,32,21,18,30.27,30.15,9,3,229,0.00
2013-4-3,53.8,44.3,27.5,11.3,7.5,-5.3,34,22,18,32.13,0.00,15,5,15,0.00
2013-4-4,64.8,54.0,0.0,17.1,11.9,-1.0,30,18,15,30.12,29.97,11,4,115,0.00
2013-4-5,69.8,57.9,0.0,19.8,16.0,0.0,37,19,14,30.09,29.88,19,8,19,0.00
2013-4-6,74.3,65.8,0.0,25.1,20.0,0.0,20,17,14,29.68,0.00,26,12,26,0.00
2013-4-7,77.2,64.2,0.0,26.0,21.5,0.0,37,20,14,29.79,29.59,18,7,18,0.00
2013-4-8,73.2,66.2,52.9,57.0,46.1,0.0,87,53,32,29.71,0.00,19,5,19,0.00
2013-4-9,77.5,67.9,0.0,47.0,39.7,0.0,70,37,20,29.68,0.00,24,9,24,0.00
2013-4-10,52.9,44.4,41.4,44.9,40.7,35.6,95,87,65,32.13,24.57,28,7,30,0.00
2013-4-11,37.9,35.7,0.0,30.4,17.7,0.0,87,49,32,29.68,0.00,18,9,19,0.00
2013-4-12,46.4,39.6,0.0,18.5,13.5,0.0,48,34,24,29.88,29.65,22,10,22,0.00
2013-4-13,56.8,49.3,0.0,19.7,15.9,0.0,52,27,20,29.97,24.57,19,7,19,0.00
2013-4-14,71.4,62.9,51.3,37.0,27.2,21.6,45,27,17,29.56,29.41,33,10,33,0.00
2013-4-15,50.2,46.7,0.0,16.2,10.3,0.0,30,22,19,29.85,0.00,18,6,21,0.00
2013-4-16,48.4,42.2,0.0,14.9,10.9,0.0,39,27,21,30.09,30.00,18,6,18,0.00
2013-4-17,49.3,45.9,0.0,48.7,42.9,0.0,98,90,53,29.91,29.59,57,7,57,0.00
2013-4-18,40.5,38.3,36.0,39.5,28.3,14.6,98,70,41,29.82,29.53,29,15,29,0.00
2013-4-19,50.2,42.3,0.0,10.6,7.3,0.0,41,23,19,29.94,29.79,28,15,28,0.00
2013-4-20,54.3,44.9,0.0,11.7,7.8,0.0,35,22,18,30.21,24.57,186,6,229,0.00
2013-4-21,68.7,66.2,62.6,19.2,17.4,15.8,16,15,15,30.09,30.00,25,10,25,0.00
2013-4-22,69.1,59.0,0.0,33.1,19.9,0.0,48,22,15,30.03,24.57,72,7,186,0.00
2013-4-23,39.7,35.4,0.0,25.7,21.6,0.0,74,58,39,30.03,29.97,18,8,18,0.00
2013-4-24,54.7,46.2,29.1,14.0,10.7,0.5,51,25,18,30.15,30.03,21,8,21,4.26
2013-4-25,67.5,59.9,0.0,25.0,16.4,0.0,47,18,15,30.21,30.06,15,6,20,4.26
2013-4-26,52.3,51.9,51.6,29.9,29.4,28.8,43,42,40,30.09,0.00,14,10,15,0.00
2013-4-28,75.4,72.8,66.9,25.8,24.3,0.0,17,16,15,29.76,29.71,13,7,18,0.00
2013-4-29,84.0,77.4,64.4,39.1,33.5,27.0,38,21,14,29.68,29.53,20,8,20,4.26
2013-4-30,85.1,77.3,0.0,29.9,27.2,0.0,22,15,13,29.74,29.65,25,12,25,4.26
2013-5-1,71.6,64.3,55.6,30.3,24.6,16.7,35,23,16,30.03,29.88,20,8,20,4.26
2013-5-2,38.5,35.0,0.0,30.2,27.7,0.0,85,74,67,30.33,30.18,24,11,24,17.17
2013-5-3,37.0,35.3,0.0,34.8,32.4,0.0,95,88,83,30.09,29.91,19,10,19,5.58
2013-5-4,54.3,46.2,0.0,44.2,37.9,0.0,97,75,48,29.91,29.76,21,5,21,5.70
2013-5-5,56.5,50.7,0.0,47.3,41.3,0.0,90,69,55,30.03,0.00,12,6,12,5.70
2013-5-6,70.0,59.5,49.5,53.2,44.8,34.7,93,64,29,30.06,0.00,10,5,20,0.58
2013-5-7,77.0,74.1,68.0,31.9,25.2,21.6,21,16,15,30.00,29.88,20,4,20,5.70
2013-5-8,75.6,68.9,57.6,41.2,34.1,30.4,45,29,20,29.94,29.85,17,6,19,5.70
2013-5-9,69.1,63.9,57.7,58.5,46.9,35.3,86,56,34,29.85,29.79,15,6,15,5.91
2013-5-10,68.2,58.8,0.0,45.5,37.0,0.0,74,49,23,29.97,29.91,14,6,18,0.00
2013-5-11,63.1,57.4,0.0,16.1,13.6,0.0,20,16,16,30.15,30.00,25,11,25,5.91
2013-5-12,65.8,58.6,0.0,17.1,14.3,0.0,28,17,15,30.21,24.57,12,4,12,5.91
2013-5-13,78.3,69.8,46.4,27.0,23.7,15.1,29,18,15,30.06,29.85,15,7,229,5.91
2013-5-14,93.2,83.2,63.5,38.5,31.6,27.3,39,17,11,29.79,0.00,22,9,22,5.91
2013-5-15,88.2,80.1,63.9,43.2,32.8,28.3,34,19,13,29.85,29.71,13,4,13,0.00
2013-5-16,83.7,76.1,0.0,57.3,41.1,0.0,73,32,16,29.85,24.57,14,5,229,0.00
2013-5-17,78.8,72.5,60.4,57.0,43.7,34.4,81,39,21,29.88,0.00,10,4,10,0.00
2013-5-18,84.0,77.8,0.0,58.9,44.1,0.0,77,33,19,29.88,29.68,17,8,17,5.91
2013-5-19,82.2,73.2,0.0,53.5,44.6,0.0,54,37,21,32.13,24.57,36,10,44,6.24
2013-5-20,79.5,73.3,0.0,50.0,42.9,0.0,59,35,22,29.68,29.53,19,8,115,6.24
2013-5-21,74.1,68.2,57.6,40.2,30.2,20.6,49,26,16,29.68,25.42,19,9,21,6.24
2013-5-22,65.1,58.3,0.0,38.1,32.4,0.0,52,36,26,29.85,24.57,21,9,21,7.00
2013-5-23,124.7,61.6,0.0,39.1,35.0,0.0,48,37,20,30.12,24.57,13,6,13,0.00
2013-5-25,83.3,73.4,0.0,46.5,38.8,0.0,42,29,20,30.06,0.00,17,7,18,0.00
2013-5-27,77.5,68.6,59.5,65.5,54.5,40.5,98,65,33,29.91,24.57,29,9,30,1.75
2013-5-28,79.7,71.2,0.0,72.1,58.9,0.0,98,67,42,29.76,29.59,26,6,26,4.04
2013-5-29,82.2,73.3,62.2,60.5,50.3,40.5,87,48,23,29.74,23.27,30,10,30,4.12
2013-5-30,72.7,66.7,63.3,61.4,55.7,47.5,92,70,41,29.65,0.00,72,7,72,4.78
2013-5-31,75.9,67.8,0.0,55.7,50.8,0.0,69,54,41,29.71,29.59,19,5,19,4.82
2013-6-1,67.5,63.3,57.6,50.4,39.3,34.1,62,42,32,29.85,29.65,17,9,17,0.00
2013-6-2,66.7,60.4,0.0,43.9,32.0,0.0,61,35,24,30.03,29.94,18,5,18,4.82
2013-6-3,73.0,65.2,0.0,44.4,31.1,0.0,66,27,21,30.00,24.57,15,7,20,4.82
2013-6-4,74.7,66.2,0.0,57.8,49.2,0.0,84,54,40,29.94,29.85,20,6,20,5.07
2013-6-5,67.3,65.0,61.9,60.0,56.8,52.4,85,75,60,29.91,29.85,18,3,18,5.40
2013-6-6,73.2,68.6,55.6,55.8,38.5,29.6,88,37,22,29.91,29.85,21,4,186,0.00
2013-6-7,73.0,66.2,0.0,49.7,36.5,0.0,73,36,19,29.97,24.57,13,4,13,5.40
2013-6-8,78.3,71.7,0.0,45.9,34.3,0.0,52,25,18,29.85,24.57,20,8,20,5.40
2013-6-9,71.2,66.2,0.0,47.0,43.4,0.0,51,42,35,29.76,25.42,21,4,21,5.98
2013-6-10,82.6,73.1,0.0,55.2,45.6,0.0,76,40,22,29.85,29.76,8,3,8,5.98
2013-6-11,91.6,80.2,0.0,52.1,42.9,0.0,47,27,14,29.79,24.57,129,8,129,5.98
2013-6-12,91.8,83.1,0.0,53.6,44.8,0.0,41,25,18,29.79,29.68,21,8,21,5.98
2013-6-13,84.7,75.3,61.9,44.1,40.3,0.0,46,29,19,30.00,0.00,20,3,20,0.00
2013-6-14,83.5,75.7,64.2,60.1,50.2,40.1,73,44,22,29.97,0.00,22,7,22,5.98
2013-6-15,86.7,75.8,67.1,62.1,54.6,41.4,84,50,22,29.94,25.31,186,8,186,6.27
2013-6-16,75.2,67.1,0.0,55.6,48.5,0.0,55,44,43,29.91,29.88,1,0,2,0.00
2013-6-17,87.6,79.1,0.0,74.0,53.4,0.0,96,50,18,29.94,0.00,115,2,115,6.27
2013-6-18,82.9,75.5,66.2,56.5,44.0,34.7,71,34,19,30.00,0.00,18,3,18,6.31
2013-6-19,85.8,77.1,0.0,67.9,46.5,0.0,93,38,20,30.00,0.00,12,5,13,6.31
2013-6-20,86.9,82.0,0.0,59.6,50.3,0.0,67,35,24,29.97,29.82,23,9,23,6.31
2013-6-21,91.9,83.4,0.0,60.8,50.8,0.0,59,33,19,29.91,29.82,20,8,20,6.31
2013-6-22,90.7,84.6,71.8,61.1,53.1,44.1,65,36,20,29.94,29.82,15,6,15,6.31
2013-6-23,80.6,74.6,0.0,63.9,56.7,0.0,81,54,44,29.94,24.57,28,6,28,6.48
2013-6-24,84.0,77.1,0.0,63.4,55.7,0.0,66,48,26,29.97,29.71,31,5,31,6.48
2013-6-25,87.6,81.4,73.6,63.9,54.2,47.8,69,40,29,29.76,24.57,25,8,25,6.52
2013-6-26,91.4,86.4,0.0,63.8,48.7,0.0,62,30,15,29.79,29.68,21,7,21,6.52
2013-6-27,81.5,76.1,70.2,65.7,60.1,53.4,69,58,47,29.94,24.57,20,2,115,0.04
2013-6-28,84.9,80.1,0.0,65.7,37.8,0.0,90,26,13,29.88,29.76,18,9,20,13.56
2013-6-29,79.7,75.1,65.1,49.2,38.4,30.4,46,28,17,29.82,29.76,24,11,115,6.61
2013-6-30,79.3,73.3,61.7,46.1,36.5,0.0,55,28,18,29.97,29.88,11,4,12,6.61
2013-7-1,81.7,69.3,0.0,40.7,33.2,0.0,47,28,14,30.06,30.00,13,4,18,6.61
2013-7-2,83.7,73.4,0.0,47.2,36.3,0.0,52,28,14,30.09,30.00,21,3,21,6.81
2013-7-3,82.8,73.7,64.2,49.4,41.1,27.9,57,32,17,30.00,29.91,20,4,20,6.81
2013-7-4,85.8,77.6,0.0,57.9,35.5,0.0,80,22,13,30.00,29.88,20,4,172,6.81
2013-7-5,89.2,81.5,63.7,49.9,38.6,28.6,56,25,13,29.94,0.00,19,6,19,6.81
2013-7-6,90.5,83.7,67.8,54.1,42.2,34.5,58,26,15,29.91,0.00,22,8,22,6.81
2013-7-7,91.6,83.0,0.0,56.1,46.1,0.0,57,30,17,29.91,0.00,57,6,57,6.89
2013-7-8,91.6,83.5,74.7,55.2,51.8,46.2,43,34,22,29.97,29.88,19,4,227,6.89
2013-7-9,98.1,87.4,0.0,62.2,51.8,0.0,53,31,16,29.94,0.00,13,5,20,6.89
2013-7-10,90.1,85.6,77.2,56.9,42.2,30.3,49,24,12,30.00,29.91,18,5,18,6.89
2013-7-11,89.6,82.2,63.0,55.6,38.1,28.6,68,25,12,30.03,24.57,14,5,14,6.89
2013-7-12,88.2,80.7,63.1,52.0,38.8,29.9,60,25,13,30.03,24.57,19,7,19,6.89
2013-7-13,88.5,80.3,65.7,45.5,42.6,39.9,44,27,19,29.97,29.91,15,6,15,6.89
2013-7-14,88.9,80.7,0.0,56.4,38.4,0.0,68,26,13,30.03,29.97,18,6,20,6.89
2013-7-15,91.2,82.2,0.0,59.2,48.3,0.0,64,34,18,30.15,30.06,13,5,19,6.89
2013-7-16,94.8,85.8,0.0,69.6,49.6,0.0,86,33,16,30.21,24.57,10,4,58,6.89
2013-7-17,95.4,88.5,72.7,63.1,47.0,37.1,65,28,14,32.13,30.12,19,4,19,6.89
2013-7-18,95.7,90.0,74.5,64.3,45.6,31.5,67,25,11,30.12,29.97,15,6,20,0.00
2013-7-19,84.4,84.3,84.0,43.4,42.9,42.4,24,23,23,0.00,0.00,0,0,0,6.89
2013-7-20,90.7,82.1,72.0,53.3,47.1,39.0,49,31,18,29.91,24.57,8,2,8,0.00
2013-7-21,90.3,80.3,68.5,67.6,54.7,40.5,82,45,19,29.88,0.00,16,4,16,6.89
2013-7-22,96.4,89.4,0.0,76.4,49.1,0.0,96,31,14,29.79,29.71,10,4,10,6.89
2013-7-23,85.6,78.4,68.9,58.2,45.8,34.0,60,34,20,29.91,29.79,11,4,11,6.89
2013-7-24,87.1,78.3,59.0,59.0,38.8,28.1,85,31,13,30.00,24.57,12,4,21,6.89
2013-7-25,87.1,76.9,63.3,55.0,45.9,36.5,66,37,18,30.03,0.00,20,4,20,6.89
2013-7-26,84.6,77.7,0.0,70.1,45.3,0.0,93,40,13,29.97,29.91,14,6,21,6.89
2013-7-27,76.6,70.0,0.0,44.9,29.1,0.0,60,23,15,30.06,29.94,18,6,18,16.83
2013-7-28,82.4,78.6,0.0,28.6,27.1,0.0,15,14,14,29.97,29.94,8,4,10,0.00
2013-7-29,67.8,64.9,63.0,63.1,50.8,38.3,92,63,40,30.06,29.97,19,4,19,0.00
2013-7-30,80.2,73.5,0.0,74.6,67.0,0.0,98,81,51,30.00,29.94,18,1,18,0.00
2013-7-31,84.6,76.2,32.4,69.7,54.3,3.7,97,53,23,30.09,0.00,21,2,21,0.00
2013-8-1,88.9,82.2,66.9,70.3,49.8,38.5,95,38,18,30.06,29.91,20,2,20,0.00
2013-8-2,87.4,77.7,66.7,59.8,54.1,46.2,70,47,26,29.88,29.79,18,3,18,0.00
2013-8-3,87.6,79.3,64.6,54.2,47.3,39.1,63,35,19,30.06,29.97,9,3,19,0.00
2013-8-5,87.8,79.1,0.0,70.1,60.3,0.0,92,55,32,29.91,29.76,19,2,19,0.00
2013-8-7,90.7,83.5,72.7,72.3,50.5,33.2,91,41,15,29.88,29.79,21,3,21,15.26
2013-8-8,77.9,71.8,0.0,61.3,52.2,0.0,86,53,32,29.94,0.00,6,2,14,0.00
2013-8-9,84.6,75.2,0.0,61.4,49.2,0.0,81,42,20,30.00,29.94,20,1,20,8.26
2013-8-10,88.0,80.3,61.3,62.2,40.1,29.5,88,32,13,30.15,0.00,72,4,72,8.26
2013-8-11,89.1,80.6,61.0,60.5,43.0,34.5,82,31,15,30.06,24.57,186,4,186,8.26
2013-8-12,88.3,74.2,0.0,71.9,56.0,0.0,89,54,22,29.97,29.91,18,2,18,8.30
2013-8-13,85.3,76.6,62.4,55.6,40.1,27.8,69,33,13,30.12,30.00,19,3,19,0.00
2013-8-14,82.8,71.0,0.0,53.6,35.0,0.0,77,30,14,30.15,30.03,9,4,10,8.30
2013-8-15,71.1,65.5,61.9,54.6,47.8,0.0,63,53,42,30.06,30.00,7,2,8,8.35
2013-8-16,81.7,72.9,61.5,48.2,36.3,26.1,57,29,14,30.12,0.00,11,4,11,8.35
2013-8-17,84.4,76.2,0.0,56.5,35.0,0.0,85,28,13,30.15,30.03,19,4,19,8.35
2013-8-18,85.3,75.7,54.5,61.3,41.9,31.8,90,37,16,30.12,24.57,20,3,20,1.79
2013-8-19,88.2,80.3,61.0,62.7,44.3,34.5,85,35,15,30.03,0.00,19,5,19,8.35
2013-8-20,91.4,83.1,65.8,57.3,44.0,0.0,65,30,14,30.00,24.57,20,6,20,8.35
2013-8-21,93.6,84.2,0.0,59.3,42.7,0.0,68,27,12,30.00,29.94,13,5,13,8.35
2013-8-22,91.0,83.7,0.0,65.1,50.1,0.0,76,35,19,30.03,24.57,20,3,20,8.35
2013-8-23,94.3,86.6,67.8,76.0,50.8,36.1,94,38,14,30.03,0.00,14,4,14,8.35
2013-8-24,94.8,88.0,0.0,64.2,46.7,0.0,66,26,16,30.09,30.00,19,7,19,0.00
2013-8-25,96.3,91.1,0.0,47.3,41.1,0.0,29,17,14,30.12,24.57,14,6,14,0.00
2013-8-26,97.5,88.3,0.0,65.0,46.3,0.0,72,28,13,30.12,29.97,20,5,20,8.35
2013-8-27,97.2,88.4,71.6,62.5,45.2,33.0,68,28,11,30.00,29.88,15,8,15,8.35
2013-8-28,96.8,88.1,68.5,59.5,43.2,32.0,64,26,11,30.00,0.00,12,5,12,8.35
2013-8-29,97.5,87.5,0.0,66.0,47.8,0.0,70,28,13,30.00,29.88,72,5,186,0.00
2013-8-30,102.4,93.5,0.0,57.4,39.2,0.0,46,16,9,29.88,29.76,21,4,21,0.00
2013-8-31,93.4,86.6,76.3,67.4,54.3,43.2,72,36,18,29.82,29.74,9,3,9,0.00
2013-9-1,88.0,77.4,0.0,69.6,48.2,0.0,97,46,13,29.91,0.00,17,6,17,0.00
2013-9-2,85.6,76.6,59.9,56.3,39.1,27.0,82,33,13,30.00,0.00,21,4,21,0.00
2013-9-3,88.3,74.7,0.0,52.0,36.9,0.0,77,32,13,30.03,0.00,20,3,20,0.00
2013-9-4,90.9,80.8,60.1,53.1,37.0,0.0,66,25,12,30.12,24.57,21,2,229,0.00
2013-9-5,91.6,80.0,62.1,66.2,44.4,30.5,90,37,12,30.18,30.09,18,2,18,0.00
2013-9-6,92.7,83.8,0.0,55.9,38.6,0.0,63,24,12,30.09,29.94,12,5,13,0.00
2013-9-7,100.0,88.5,0.0,50.7,40.9,0.0,47,22,10,29.94,24.57,20,6,20,0.00
2013-9-8,101.8,89.6,0.0,58.6,43.4,0.0,56,22,10,29.88,24.57,10,3,13,0.00
2013-9-9,98.6,87.5,0.0,53.4,36.7,0.0,49,18,10,29.88,24.57,20,7,21,0.00
2013-9-10,97.5,86.7,0.0,50.5,37.3,0.0,47,19,11,30.00,0.00,16,8,16,0.00
2013-9-11,93.4,80.5,0.0,53.2,41.8,0.0,55,26,14,30.06,29.97,13,4,14,0.00
2013-9-12,86.2,78.1,0.0,70.8,44.8,0.0,95,42,13,30.09,30.00,18,4,18,0.00
2013-9-13,79.0,69.4,0.0,40.3,30.3,0.0,52,26,15,30.15,24.57,10,3,10,0.00
2013-9-15,71.6,66.5,61.9,64.4,54.3,42.6,84,65,44,30.06,0.00,10,3,10,9.46
2013-9-16,66.2,61.7,56.8,54.0,48.3,43.4,86,63,44,30.21,30.12,14,4,18,9.59
2013-9-17,77.7,67.0,58.8,69.0,57.1,51.0,95,74,42,30.09,0.00,19,4,19,0.42
2013-9-18,89.4,82.4,68.0,68.9,51.5,41.5,95,41,19,29.88,29.74,18,8,18,10.09
2013-9-19,92.7,79.0,0.0,63.3,49.2,0.0,84,39,17,29.79,29.68,26,7,26,0.62
2013-9-20,71.2,63.4,0.0,46.0,32.5,0.0,67,33,19,30.00,24.57,20,6,20,10.83
2013-9-21,76.5,67.4,47.1,42.0,29.6,22.0,67,28,15,29.97,0.00,186,4,244,10.83
2013-9-22,78.4,71.0,0.0,31.5,26.1,0.0,22,16,15,29.91,29.82,12,6,13,0.00
2013-9-23,77.5,67.0,0.0,46.3,33.2,0.0,68,31,15,29.88,29.76,20,9,20,0.00
2013-9-24,74.7,68.6,0.0,48.1,42.3,0.0,58,38,29,29.79,29.68,19,3,19,0.00
2013-9-25,81.9,78.0,68.9,53.9,44.1,35.6,58,32,20,29.88,29.79,12,5,12,10.83
2013-9-26,84.4,75.2,61.7,62.8,47.1,36.2,90,46,18,29.88,24.57,22,8,22,10.83
2013-9-27,86.5,77.9,0.0,56.6,42.9,0.0,71,32,18,29.94,29.82,23,9,23,10.83
2013-9-28,66.4,61.9,56.8,56.5,46.1,38.7,90,58,38,29.97,29.88,1,0,1,0.00
2013-9-29,75.4,66.3,0.0,58.3,33.4,0.0,94,37,15,30.03,29.88,1,0,19,10.83
2013-9-30,78.3,72.8,0.0,47.9,35.2,0.0,52,26,18,29.85,29.76,1,0,20,0.00
2013-10-1,85.3,82.1,76.3,47.0,38.7,36.0,34,22,19,29.91,29.85,1,0,172,10.83
2013-10-3,82.8,72.2,0.0,69.4,58.4,0.0,93,66,33,29.85,29.65,24,5,72,10.83
2013-10-4,87.4,79.0,70.7,64.6,54.8,41.2,80,48,20,29.76,24.57,20,5,20,10.83
2013-10-5,59.2,55.6,0.0,20.0,16.7,0.0,26,21,19,29.88,29.79,14,6,14,0.00
2013-10-6,54.5,47.7,0.0,41.7,32.5,0.0,74,53,37,29.85,29.71,24,10,24,10.83
2013-10-7,73.6,64.8,48.2,39.6,28.0,0.0,70,28,16,30.06,24.57,21,4,21,0.00
2013-10-8,75.9,67.6,49.5,37.2,28.4,23.1,53,26,15,30.03,29.94,20,8,20,10.83
2013-10-9,76.3,66.0,0.0,43.5,31.6,0.0,70,32,15,30.06,29.94,20,5,20,10.83
2013-10-10,78.3,68.6,0.0,47.5,36.5,0.0,72,35,15,30.00,29.88,19,6,19,0.00
2013-10-11,74.1,67.5,56.5,52.6,49.1,45.5,74,53,40,29.79,29.71,25,8,25,10.83
2013-10-12,70.0,63.6,0.0,34.6,21.9,0.0,51,21,14,30.12,0.00,14,4,14,10.83
2013-10-13,72.1,61.9,41.4,28.5,20.8,11.3,47,23,14,32.13,0.00,20,3,20,10.83
2013-10-14,70.0,60.5,45.7,42.0,24.9,15.8,49,27,15,30.12,0.00,115,10,115,10.83
2013-10-15,59.7,52.4,0.0,35.4,25.8,0.0,60,36,24,29.97,29.85,22,10,22,10.83
2013-10-16,53.6,49.2,0.0,28.9,25.3,0.0,48,38,32,30.00,0.00,57,6,57,10.83
2013-10-17,67.3,57.7,41.0,34.6,22.2,10.4,67,29,15,29.88,29.82,20,6,172,10.83
2013-10-18,46.4,41.0,0.0,30.9,23.6,0.0,72,51,27,30.03,24.57,10,3,10,10.83
2013-10-19,63.3,53.1,0.0,37.9,21.1,0.0,87,36,16,32.13,24.57,15,6,57,11.79
2013-10-20,68.0,58.8,45.0,32.9,24.4,18.2,56,30,17,29.76,25.37,14,6,14,11.79
2013-10-21,55.0,46.8,35.4,26.2,15.4,7.6,61,32,18,30.03,29.91,20,4,20,11.79
2013-10-22,56.3,50.2,0.0,33.2,24.7,0.0,54,37,25,30.00,29.76,22,10,22,11.79
2013-10-23,51.1,39.7,0.0,30.8,21.4,0.0,78,49,27,30.09,29.97,6,2,7,11.79
2013-10-24,50.5,43.0,0.0,21.8,12.0,0.0,61,31,19,30.33,0.00,18,6,18,11.79
2013-10-25,57.7,47.3,27.9,20.3,11.4,5.1,48,25,17,30.36,30.00,16,5,229,0.00
2013-10-26,57.9,52.0,40.3,28.8,15.5,5.7,53,25,17,30.15,29.94,57,6,57,0.00
2013-10-27,64.2,50.3,28.8,26.5,16.2,0.0,56,29,16,30.00,0.00,15,4,115,0.00
2013-10-28,71.1,57.0,0.0,25.4,18.6,0.0,50,25,14,30.09,24.57,13,3,14,0.00
2013-10-29,59.4,54.5,0.0,56.8,49.8,0.0,93,84,57,30.00,29.85,10,2,10,0.00
2013-10-30,65.7,62.8,58.6,65.1,62.2,58.1,98,98,96,29.85,0.00,25,4,25,0.00
2013-10-31,52.3,46.2,0.0,51.8,45.7,0.0,98,95,96,29.59,29.44,10,5,20,0.00
2013-11-1,57.9,49.7,39.0,45.8,39.2,31.8,98,70,38,29.79,0.00,22,8,22,0.00
2013-11-2,55.8,49.5,0.0,38.9,28.4,0.0,84,47,25,30.12,30.00,21,7,57,0.00
2013-11-3,58.8,52.5,0.0,26.6,19.8,0.0,56,29,19,30.03,0.00,28,12,28,0.00
2013-11-4,58.3,54.6,0.0,41.1,36.3,0.0,70,49,43,29.97,29.82,18,5,25,0.00
2013-11-5,59.0,55.1,0.0,58.4,53.9,0.0,98,94,84,30.00,24.57,19,7,19,0.00
2013-11-6,47.5,41.2,0.0,35.3,31.2,0.0,92,68,47,30.15,24.57,22,8,22,0.00
2013-11-7,53.2,45.9,32.2,33.8,18.8,4.5,85,40,18,30.33,0.00,20,7,20,0.00
2013-11-8,64.8,54.5,0.0,20.3,16.0,0.0,41,23,15,30.09,29.79,30,12,30,0.00
2013-11-9,113.4,61.9,54.3,19.5,16.1,11.3,19,17,15,30.12,30.03,18,8,18,0.00
2013-11-10,55.2,47.2,0.0,19.1,14.1,0.0,46,26,18,30.33,30.12,19,4,19,0.00
2013-11-11,54.5,39.8,0.0,40.9,22.6,0.0,64,49,42,30.44,30.03,20,8,22,18.61
2013-11-12,34.7,25.3,0.0,5.5,-0.9,-7.9,54,31,22,32.13,30.53,20,3,20,0.00
2013-11-13,50.4,40.8,22.6,9.7,6.0,0.0,43,24,19,30.39,30.12,17,9,17,0.00
2013-11-14,55.9,49.2,38.5,12.5,9.4,5.4,29,20,17,29.94,29.82,172,8,172,0.00
2013-11-15,58.3,51.5,0.0,24.8,18.1,0.0,39,27,19,29.85,24.57,20,6,20,0.00
2013-11-16,70.7,64.5,0.0,56.3,45.1,0.0,84,52,33,29.44,0.00,28,11,28,0.00
2013-11-17,61.9,58.2,51.1,43.6,23.9,13.1,51,28,16,29.71,29.23,29,13,30,0.00
2013-11-18,56.1,46.5,32.5,30.3,19.1,8.0,75,38,17,30.24,0.00,21,3,21,0.00
2013-11-19,60.8,51.9,0.0,21.2,14.5,0.0,47,23,16,30.12,24.57,22,10,22,0.00
2013-11-20,47.7,41.7,0.0,31.5,25.2,0.0,65,52,19,29.88,0.00,20,8,20,0.00
2013-11-21,43.2,36.4,0.0,38.3,32.2,0.0,89,84,79,30.27,0.00,18,5,21,443.56
2013-11-22,28.0,24.6,0.0,20.0,16.7,0.0,75,71,66,32.13,30.41,21,0,21,0.00
2013-11-23,23.4,18.8,0.0,5.1,-0.2,-5.7,54,42,32,32.13,30.59,0,0,0,0.00
2013-11-24,27.1,20.5,9.3,5.0,0.4,-8.2,56,42,23,30.56,30.30,9,0,9,0.00
2013-11-25,41.2,33.9,28.6,13.8,8.3,0.0,51,34,24,30.12,0.00,19,5,20,0.00
2013-11-26,36.3,28.9,21.2,17.1,6.2,-3.4,63,39,25,30.27,24.57,22,10,22,0.00
2013-11-27,32.5,24.6,10.9,2.7,-2.0,-7.2,48,32,23,30.33,29.97,20,4,20,0.00
2013-11-28,37.8,31.5,0.0,10.8,4.6,-0.4,46,31,22,30.36,30.12,18,5,18,0.00
2013-11-29,48.9,40.0,0.0,16.9,11.7,0.0,56,32,21,30.39,30.15,19,7,19,0.00
2013-11-30,54.1,49.2,0.0,21.2,18.1,0.0,30,25,25,30.06,30.00,20,2,20,0.00
2013-12-1,56.1,43.0,0.0,25.6,20.1,0.0,66,42,22,30.03,29.85,18,1,18,0.00
2013-12-2,61.2,50.0,0.0,35.5,25.2,0.0,74,41,19,29.65,24.57,20,6,20,0.00
2013-12-3,58.5,49.9,0.0,42.6,34.5,0.0,92,57,36,29.53,29.41,10,3,20,0.00
2013-12-4,38.7,29.6,0.0,38.2,25.3,0.0,98,84,54,29.79,29.44,20,10,20,0.00
2013-12-5,18.0,15.6,0.0,0.0,-5.4,-7.8,46,38,34,30.24,30.06,18,9,18,0.00
2013-12-6,17.6,12.2,0.0,0.0,-15.3,-20.8,32,26,23,32.13,24.57,21,7,21,0.00
2013-12-7,21.7,14.6,1.2,-11.1,-15.9,-27.1,29,24,22,30.62,30.36,10,4,10,0.00
2013-12-8,20.8,18.2,0.0,11.9,8.9,0.0,72,66,60,30.06,0.00,21,4,21,0.77
2013-12-9,11.3,6.0,0.0,3.1,-1.9,-6.9,69,69,69,32.13,0.00,11,4,11,0.00
2013-12-10,32.9,24.4,0.0,1.5,-2.1,-6.0,41,30,23,30.21,30.00,20,4,21,0.00
2013-12-11,124.7,13.1,2.5,2.1,-9.0,-20.6,50,36,28,30.59,0.00,19,5,19,0.00
2013-12-12,38.7,28.7,0.0,6.7,1.4,-13.0,45,30,24,30.33,0.00,12,4,20,0.00
2013-12-13,36.5,32.3,0.0,29.7,23.6,0.0,88,70,57,29.88,0.00,8,2,8,0.00
2013-12-14,25.3,24.7,23.9,13.8,12.5,11.3,61,59,58,30.06,30.03,14,9,14,0.00
2013-12-15,33.8,30.5,0.0,21.4,19.1,0.0,66,56,55,29.88,29.85,5,0,5,0.00
2013-12-16,40.5,31.1,0.0,33.7,24.0,0.0,90,75,55,30.03,29.91,10,1,10,0.00
2013-12-17,44.2,37.4,0.0,17.7,7.1,0.0,36,28,20,30.21,24.57,16,6,229,0.00
2013-12-18,61.3,48.1,0.0,15.9,12.8,0.0,43,24,16,29.91,29.68,19,9,57,0.00
2013-12-19,56.5,48.8,39.7,37.5,31.9,0.0,63,53,45,29.71,29.59,20,2,20,0.00
2013-12-20,26.4,22.4,20.5,23.4,19.3,17.5,89,88,87,29.85,29.71,21,2,21,0.00
2013-12-21,25.7,24.6,21.9,22.4,20.8,18.4,87,85,82,29.76,29.59,18,0,18,0.00
2013-12-22,23.0,17.1,6.4,16.3,5.9,-5.5,83,61,52,30.18,0.00,9,0,9,0.00
2013-12-23,9.9,5.1,-3.8,-2.3,-6.8,-15.2,57,57,57,30.50,30.36,20,0,20,0.00
2013-12-24,19.9,11.9,-6.0,5.7,-3.4,-17.2,57,50,35,30.36,30.09,20,6,20,0.00
2013-12-25,37.0,30.6,24.4,18.5,16.0,0.0,76,55,44,30.24,30.12,21,4,21,0.00
2013-12-26,46.2,36.1,0.0,18.8,14.4,0.0,69,41,27,30.12,30.06,14,5,20,443.56
2013-12-27,48.9,39.4,23.7,22.8,17.0,11.1,63,42,26,30.21,24.57,20,4,20,0.00
2013-12-28,54.5,45.1,0.0,22.0,15.3,0.0,55,31,18,29.94,29.74,20,5,20,0.00
2013-12-29,16.7,12.3,7.7,-1.4,-11.7,-21.6,50,34,23,30.24,0.00,143,9,143,443.56
2013-12-30,27.0,19.6,7.5,-0.9,-11.1,-21.7,32,24,21,30.15,30.00,21,5,21,0.00
2013-12-31,50.7,34.4,0.0,11.7,6.9,-3.0,58,34,19,30.15,29.91,183,6,183,0.00
2014-1-1,18.3,13.4,8.6,3.8,-1.2,-6.2,59,51,46,30.18,30.00,18,7,22,0.00
2014-1-2,12.0,6.5,-0.8,0.0,-8.0,-14.9,50,50,50,30.41,30.27,21,4,21,0.00